Terminal Aerodrome Forecast
Issued by NWS

Current Version | Previous Version | Text Only | Print | Product List | Glossary Off
Versions: 1 2 3 4 5 6 7 8 9 10 11 12 13 14 15 16

000
FTUS41 KPBZ 220530
TAFMGW
TAF
KMGW 220530Z 2206/2306 36009KT P6SM BKN090
     FM220800 01009KT P6SM VCSH OVC050
     FM221200 01011KT P6SM VCSH OVC025
     FM221500 01008KT 3SM -RA OVC015
     FM230200 01007KT P6SM OVC010=

USA.gov is the U.S. government's official web portal to all federal, state and local government web resources and services.